Terminal Aerodrome Forecast
Issued by NWS

Home | Current Version | Previous Version | Text Only | Print | Product List | Glossary On
Versions: 1 2 3 4 5 6 7 8 9 10 11 12 13 14 15 16 17 18 19 20 21 22 23 24 25 26 27 28 29 30 31 32 33 34
311
FTUS45 KGJT 231734
TAFTEX
TAF
KTEX 231734Z 2318/2418 21015G23KT P6SM SCT025 OVC040 WS020/22050KT
      TEMPO 2318/2320 3SM -SHSN BR OVC025
     FM232200 22020G37KT 1SM -SHSN BLSN OVC025
     FM240000 23019G35KT 1SM -SHSN BR BLSN OVC020
     FM240400 25014G25KT 2SM -SHSN BR BLSN OVC015
     FM240600 24008KT 2SM -SHSN BR OVC015=

USA.gov is the U.S. government's official web portal to all federal, state and local government web resources and services.